createdAt,value
2019-02-18T00:01:22.226Z,100163.80
2019-02-18T00:03:52.926Z,100157.80
2019-02-18T00:06:23.552Z,100160.14
2019-02-18T00:08:54.374Z,100150.39
2019-02-18T00:11:24.935Z,100152.59
2019-02-18T00:13:55.391Z,100149.47
2019-02-18T00:16:25.938Z,100153.00
2019-02-18T00:18:56.426Z,100154.14
2019-02-18T00:21:27.104Z,100157.58
2019-02-18T00:23:57.846Z,100148.52
2019-02-18T00:26:28.306Z,100147.47
2019-02-18T00:28:58.862Z,100149.19
2019-02-18T00:31:29.486Z,100146.31
2019-02-18T00:34:00.107Z,100147.03
2019-02-18T00:36:31.067Z,100143.14
2019-02-18T00:39:01.826Z,100139.84
2019-02-18T00:41:32.578Z,100143.20
2019-02-18T00:44:03.646Z,100140.72
2019-02-18T00:46:34.207Z,100137.59
2019-02-18T00:49:04.726Z,100139.25
2019-02-18T00:51:35.390Z,100132.66
2019-02-18T00:54:05.999Z,100130.61
2019-02-18T00:56:36.566Z,100125.41
2019-02-18T00:59:07.626Z,100122.17
2019-02-18T01:01:38.186Z,100119.96
2019-02-18T01:04:08.792Z,100118.73
2019-02-18T01:06:39.413Z,100111.14
2019-02-18T01:09:10.846Z,100118.45
2019-02-18T01:11:41.686Z,100116.34
2019-02-18T01:14:12.475Z,100113.79
2019-02-18T01:16:43.302Z,100112.37
2019-02-18T01:19:13.827Z,100116.78
2019-02-18T01:21:44.627Z,100114.06
2019-02-18T01:24:15.259Z,100112.43
2019-02-18T01:26:45.788Z,100106.48
2019-02-18T01:29:16.581Z,100109.27
2019-02-18T01:31:47.958Z,100104.15
2019-02-18T01:34:18.686Z,100101.23
2019-02-18T01:36:49.944Z,100095.68
2019-02-18T01:39:20.666Z,100096.95
2019-02-18T01:41:51.118Z,100090.50
2019-02-18T01:44:21.770Z,100091.45
2019-02-18T01:46:52.486Z,100082.30
2019-02-18T01:49:23.155Z,100077.81
2019-02-18T01:51:53.906Z,100079.88
2019-02-18T01:54:24.698Z,100077.11
2019-02-18T01:56:55.858Z,100075.09
2019-02-18T01:59:26.475Z,100075.75
2019-02-18T02:01:57.163Z,100070.76
2019-02-18T02:04:27.806Z,100062.64
2019-02-18T02:06:58.387Z,100062.47
2019-02-18T02:09:29.106Z,100067.70
2019-02-18T02:12:01.378Z,100062.78
2019-02-18T02:14:32.046Z,100067.34
2019-02-18T02:17:02.684Z,100058.13
2019-02-18T02:19:33.371Z,100071.08
2019-02-18T02:22:04.038Z,100064.30
2019-02-18T02:24:34.786Z,100060.61
2019-02-18T02:27:05.486Z,100064.24
2019-02-18T02:29:36.159Z,100062.31
2019-02-18T02:32:07.048Z,100060.77
2019-02-18T02:34:37.777Z,100051.60
2019-02-18T02:37:08.567Z,100054.70
2019-02-18T02:39:39.126Z,100047.09
2019-02-18T02:42:09.666Z,100046.69
2019-02-18T02:44:40.203Z,100041.20
2019-02-18T02:47:10.998Z,100041.13
2019-02-18T02:49:41.614Z,100036.47
2019-02-18T02:52:12.148Z,100034.19
2019-02-18T02:54:42.804Z,100037.48
2019-02-18T02:57:13.408Z,100030.16
2019-02-18T02:59:43.947Z,100032.23
2019-02-18T03:02:15.038Z,100028.25
2019-02-18T03:04:45.666Z,100032.45
2019-02-18T03:07:16.361Z,100031.86
2019-02-18T03:09:47.068Z,100038.25
2019-02-18T03:12:17.917Z,100033.08
2019-02-18T03:14:48.467Z,100034.45
2019-02-18T03:17:19.446Z,100031.70
2019-02-18T03:19:50.067Z,100038.08
2019-02-18T03:22:20.766Z,100040.83
2019-02-18T03:25:21.287Z,100036.83
2019-02-18T03:28:02.655Z,100033.63
2019-02-18T03:30:50.027Z,100032.28
2019-02-18T03:33:29.648Z,100036.34
2019-02-18T03:36:00.326Z,100044.66
2019-02-18T03:38:31.916Z,100044.15
2019-02-18T03:41:03.630Z,100045.39
2019-02-18T03:43:34.466Z,100049.12
2019-02-18T03:46:05.116Z,100052.02
2019-02-18T03:48:36.000Z,100057.45
2019-02-18T03:51:06.619Z,100052.08
2019-02-18T03:53:37.244Z,100052.00
2019-02-18T03:56:08.086Z,100053.55
2019-02-18T03:58:38.828Z,100044.11
2019-02-18T04:01:09.535Z,100041.71
2019-02-18T04:03:40.308Z,100044.88
2019-02-18T04:06:10.990Z,100041.59
2019-02-18T04:08:43.165Z,100043.48
2019-02-18T04:11:14.398Z,100040.05
2019-02-18T04:13:44.970Z,100043.48
2019-02-18T04:16:15.449Z,100038.59
2019-02-18T04:18:47.650Z,100033.49
2019-02-18T04:21:18.295Z,100037.31
2019-02-18T04:23:48.868Z,100037.77
2019-02-18T04:26:19.534Z,100039.05
2019-02-18T04:28:49.988Z,100037.77
2019-02-18T04:31:20.506Z,100031.40
2019-02-18T04:33:50.936Z,100034.42
2019-02-18T04:36:21.579Z,100031.36
2019-02-18T04:38:54.409Z,100025.50
2019-02-18T04:41:24.550Z,100025.17
2019-02-18T04:43:55.207Z,100029.03
2019-02-18T04:46:25.852Z,100026.45
2019-02-18T04:48:56.597Z,100021.91
2019-02-18T04:51:27.549Z,100018.59
2019-02-18T04:53:58.205Z,100011.52
2019-02-18T04:56:28.967Z,100019.25
2019-02-18T04:58:59.428Z,100012.81
2019-02-18T05:01:29.986Z,100016.83
2019-02-18T05:04:00.552Z,100019.95
2019-02-18T05:06:31.160Z,100017.61
2019-02-18T05:09:05.300Z,100015.12
2019-02-18T05:11:34.059Z,100017.38
2019-02-18T05:14:04.802Z,100012.06
2019-02-18T05:16:35.401Z,100014.67
2019-02-18T05:19:09.583Z,100013.91
2019-02-18T05:21:40.257Z,100006.90
2019-02-18T05:24:10.927Z,100008.69
2019-02-18T05:26:41.606Z,100010.33
2019-02-18T05:29:12.132Z,100015.89
2019-02-18T05:31:42.756Z,100013.46
2019-02-18T05:34:13.318Z,100012.34
2019-02-18T05:36:43.946Z,100015.65
2019-02-18T05:39:17.877Z,100011.27
2019-02-18T05:41:47.061Z,100019.20
2019-02-18T05:44:17.645Z,100014.67
2019-02-18T05:46:48.338Z,100020.77
2019-02-18T05:49:19.062Z,100010.36
2019-02-18T05:51:49.719Z,100017.02
2019-02-18T05:54:20.378Z,100022.88
2019-02-18T05:56:52.718Z,100023.30
2019-02-18T05:59:23.214Z,100021.84
2019-02-18T06:01:53.749Z,100025.09
2019-02-18T06:04:24.277Z,100025.39
2019-02-18T06:06:54.813Z,100026.45
2019-02-18T06:09:29.701Z,100020.72
2019-02-18T06:11:57.999Z,100027.18
2019-02-18T06:14:28.767Z,100027.42
2019-02-18T06:16:59.399Z,100039.29
2019-02-18T06:19:30.347Z,100037.09
2019-02-18T06:22:01.095Z,100036.30
2019-02-18T06:24:31.741Z,100037.54
2019-02-18T06:27:02.479Z,100035.83
2019-02-18T06:29:32.981Z,100040.86
2019-02-18T06:32:03.841Z,100041.67
2019-02-18T06:34:34.327Z,100042.34
2019-02-18T06:37:04.922Z,100041.06
2019-02-18T06:39:41.202Z,100040.94
2019-02-18T06:42:07.678Z,100046.15
2019-02-18T06:44:44.648Z,100047.70
2019-02-18T06:47:21.058Z,100048.73
2019-02-18T06:49:51.614Z,100047.06
2019-02-18T06:52:22.218Z,100052.73
2019-02-18T06:54:53.218Z,100051.28
2019-02-18T06:57:33.084Z,100050.86
2019-02-18T07:00:13.146Z,100062.08
2019-02-18T07:03:02.546Z,100061.77
2019-02-18T07:05:42.601Z,100057.91
2019-02-18T07:08:31.978Z,100059.57
2019-02-18T07:11:16.298Z,100063.80
2019-02-18T07:13:52.850Z,100065.38
2019-02-18T07:16:23.618Z,100058.45
2019-02-18T07:18:54.166Z,100058.13
2019-02-18T07:21:24.844Z,100059.37
2019-02-18T07:23:55.503Z,100063.61
2019-02-18T07:26:26.344Z,100062.74
2019-02-18T07:28:57.126Z,100071.80
2019-02-18T07:31:27.935Z,100071.73
2019-02-18T07:34:00.150Z,100064.73
2019-02-18T07:36:34.905Z,100059.98
2019-02-18T07:39:07.671Z,100062.09
2019-02-18T07:41:47.489Z,100055.25
2019-02-18T07:44:20.181Z,100061.66
2019-02-18T07:46:52.648Z,100064.60
2019-02-18T07:49:25.139Z,100056.24
2019-02-18T07:51:58.110Z,100059.19
2019-02-18T07:54:31.091Z,100059.44
2019-02-18T07:57:03.171Z,100061.42
2019-02-18T07:59:35.636Z,100058.19
2019-02-18T08:02:08.306Z,100051.13
2019-02-18T08:04:41.413Z,100066.18
2019-02-18T08:07:13.508Z,100064.95
2019-02-18T08:09:50.738Z,100055.22
2019-02-18T08:12:25.071Z,100054.74
2019-02-18T08:15:01.754Z,100055.95
2019-02-18T08:17:34.098Z,100049.88
2019-02-18T08:20:07.478Z,100051.12
2019-02-18T08:22:39.510Z,100056.78
2019-02-18T08:25:12.036Z,100056.48
2019-02-18T08:27:44.299Z,100053.27
2019-02-18T08:30:17.185Z,100052.80
2019-02-18T08:32:49.349Z,100048.28
2019-02-18T08:35:21.818Z,100049.94
2019-02-18T08:37:54.082Z,100048.47
2019-02-18T08:40:26.669Z,100054.03
2019-02-18T08:43:02.414Z,100046.86
2019-02-18T08:45:35.458Z,100041.54
2019-02-18T08:48:07.993Z,100043.20
2019-02-18T08:50:40.347Z,100036.59
2019-02-18T08:53:12.616Z,100043.98
2019-02-18T08:55:45.294Z,100044.80
2019-02-18T08:58:17.979Z,100045.23
2019-02-18T09:00:50.748Z,100048.80
2019-02-18T09:03:23.027Z,100046.27
2019-02-18T09:05:55.288Z,100052.00
2019-02-18T09:08:27.862Z,100051.38
2019-02-18T09:11:00.028Z,100051.22
2019-02-18T09:13:32.808Z,100058.66
2019-02-18T09:16:05.998Z,100054.53
2019-02-18T09:18:42.056Z,100053.94
2019-02-18T09:21:15.659Z,100061.70
2019-02-18T09:24:04.922Z,100069.09
2019-02-18T09:26:37.711Z,100065.43
2019-02-18T09:29:09.967Z,100061.95
2019-02-18T09:31:43.469Z,100064.95
2019-02-18T09:34:16.039Z,100065.64
2019-02-18T09:36:48.317Z,100064.02
2019-02-18T09:39:30.788Z,100064.93
2019-02-18T09:41:57.351Z,100062.95
2019-02-18T09:44:30.131Z,100059.55
2019-02-18T09:47:02.814Z,100062.39
2019-02-18T09:49:35.381Z,100060.69
2019-02-18T09:52:10.212Z,100061.84
2019-02-18T09:54:42.998Z,100069.64
2019-02-18T09:57:16.182Z,100058.69
2019-02-18T09:59:48.861Z,100063.90
2019-02-18T10:02:21.338Z,100053.13
2019-02-18T10:04:53.809Z,100055.30
2019-02-18T10:07:26.071Z,100057.56
2019-02-18T10:09:59.377Z,100056.22
2019-02-18T10:12:31.840Z,100057.73
2019-02-18T10:15:04.620Z,100051.78
2019-02-18T10:17:37.466Z,100048.48
2019-02-18T10:20:11.928Z,100053.84
2019-02-18T10:22:44.806Z,100050.85
2019-02-18T10:25:17.463Z,100044.79
2019-02-18T10:27:50.055Z,100043.37
2019-02-18T10:30:23.039Z,100039.02
2019-02-18T10:32:55.947Z,100040.84
2019-02-18T10:35:27.990Z,100038.70
2019-02-18T10:38:00.375Z,100035.92
2019-02-18T10:40:32.631Z,100029.09
2019-02-18T10:43:05.311Z,100030.12
2019-02-18T10:45:38.189Z,100026.55
2019-02-18T10:48:10.456Z,100026.47
2019-02-18T10:50:42.832Z,100017.13
2019-02-18T10:53:15.470Z,100020.32
2019-02-18T10:55:47.567Z,100008.33
2019-02-18T10:58:21.691Z,100010.33
2019-02-18T11:00:54.351Z,100000.28
2019-02-18T11:03:27.035Z,100001.20
2019-02-18T11:05:59.467Z,99996.90
2019-02-18T11:08:32.086Z,99994.27
2019-02-18T11:11:04.472Z,99997.11
2019-02-18T11:13:37.336Z,99995.30
2019-02-18T11:16:09.712Z,99991.45
2019-02-18T11:18:42.403Z,99984.62
2019-02-18T11:21:15.064Z,99983.75
2019-02-18T11:23:47.969Z,99979.59
2019-02-18T11:26:20.931Z,99979.27
2019-02-18T11:28:53.821Z,99980.05
2019-02-18T11:31:25.878Z,99973.80
2019-02-18T11:33:58.510Z,99978.16
2019-02-18T11:36:30.920Z,99977.36
2019-02-18T11:39:03.096Z,99968.83
2019-02-18T11:41:35.586Z,99970.40
2019-02-18T11:44:07.937Z,99966.59
2019-02-18T11:46:40.103Z,99961.19
2019-02-18T11:49:12.474Z,99954.58
2019-02-18T11:51:44.955Z,99951.15
2019-02-18T11:54:17.112Z,99951.20
2019-02-18T11:56:49.587Z,99948.80
2019-02-18T11:59:24.363Z,99956.27
2019-02-18T12:01:56.070Z,99947.28
2019-02-18T12:04:28.336Z,99943.60
2019-02-18T12:07:01.431Z,99939.20
2019-02-18T12:09:33.589Z,99933.18
2019-02-18T12:12:06.068Z,99929.98
2019-02-18T12:14:39.047Z,99939.62
2019-02-18T12:17:20.352Z,99934.02
2019-02-18T12:19:45.431Z,99922.79
2019-02-18T12:22:18.005Z,99921.92
2019-02-18T12:24:51.084Z,99917.53
2019-02-18T12:27:23.769Z,99903.94
2019-02-18T12:29:56.343Z,99910.08
2019-02-18T12:32:29.431Z,99908.18
2019-02-18T12:35:01.899Z,99905.28
2019-02-18T12:37:34.401Z,99901.77
2019-02-18T12:40:07.368Z,99898.60
2019-02-18T12:42:42.164Z,99896.39
2019-02-18T12:45:13.944Z,99893.09
2019-02-18T12:47:46.735Z,99885.91
2019-02-18T12:50:19.711Z,99885.34
2019-02-18T12:52:52.082Z,99876.40
2019-02-18T12:55:26.394Z,99876.33
2019-02-18T12:58:01.637Z,99876.12
2019-02-18T13:00:36.263Z,99871.67
2019-02-18T13:03:10.368Z,99870.75
2019-02-18T13:05:42.358Z,99864.13
2019-02-18T13:08:16.971Z,99862.80
2019-02-18T13:10:49.639Z,99856.06
2019-02-18T13:13:24.051Z,99855.27
2019-02-18T13:15:56.332Z,99856.83
2019-02-18T13:18:30.024Z,99848.52
2019-02-18T13:21:03.006Z,99850.99
2019-02-18T13:23:35.377Z,99842.63
2019-02-18T13:26:08.271Z,99840.45
2019-02-18T13:28:40.762Z,99844.18
2019-02-18T13:31:15.872Z,99846.64
2019-02-18T13:33:48.239Z,99845.41
2019-02-18T13:36:22.271Z,99842.14
2019-02-18T13:38:54.635Z,99844.17
2019-02-18T13:41:32.018Z,99842.45
2019-02-18T13:44:12.392Z,99833.10
2019-02-18T13:46:45.149Z,99834.66
2019-02-18T13:49:18.252Z,99833.94
2019-02-18T13:51:56.721Z,99832.44
2019-02-18T13:54:29.131Z,99829.50
2019-02-18T13:57:08.199Z,99833.08
2019-02-18T13:59:40.114Z,99830.41
2019-02-18T14:02:12.582Z,99825.05
2019-02-18T14:04:49.046Z,99820.50
2019-02-18T14:07:24.311Z,99821.91
2019-02-18T14:09:57.076Z,99812.04
2019-02-18T14:12:30.772Z,99811.97
2019-02-18T14:15:03.142Z,99814.83
2019-02-18T14:17:36.229Z,99812.34
2019-02-18T14:20:14.055Z,99807.81
2019-02-18T14:22:46.811Z,99817.48
2019-02-18T14:25:19.693Z,99813.75
2019-02-18T14:27:53.814Z,99806.34
2019-02-18T14:30:29.774Z,99802.84
2019-02-18T14:33:04.472Z,99804.37
2019-02-18T14:35:37.373Z,99798.04
2019-02-18T14:38:14.133Z,99796.91
2019-02-18T14:40:51.952Z,99798.06
2019-02-18T14:43:24.101Z,99799.18
2019-02-18T14:45:57.191Z,99801.16
2019-02-18T14:48:29.972Z,99794.33
2019-02-18T14:51:04.387Z,99791.33
2019-02-18T14:53:36.467Z,99792.80
2019-02-18T14:56:10.790Z,99797.11
2019-02-18T14:58:44.071Z,99796.72
2019-02-18T15:01:17.046Z,99793.53
2019-02-18T15:03:49.463Z,99790.70
2019-02-18T15:06:21.991Z,99788.81
2019-02-18T15:08:56.447Z,99781.20
2019-02-18T15:11:31.346Z,99781.84
2019-02-18T15:14:05.966Z,99771.60
2019-02-18T15:16:38.639Z,99769.48
2019-02-18T15:19:11.731Z,99768.35
2019-02-18T15:21:45.469Z,99765.56
2019-02-18T15:24:18.633Z,99763.09
2019-02-18T15:26:51.611Z,99763.76
2019-02-18T15:29:24.717Z,99764.55
2019-02-18T15:35:58.332Z,99760.14
2019-02-18T15:42:31.132Z,99754.20
2019-02-18T15:49:03.928Z,99756.86
2019-02-18T15:51:38.350Z,99749.34
2019-02-18T15:54:11.230Z,99750.86
2019-02-18T15:56:46.368Z,99738.49
2019-02-18T15:59:19.353Z,99740.11
2019-02-18T16:01:52.452Z,99737.16
2019-02-18T16:04:24.831Z,99734.50
2019-02-18T16:06:57.292Z,99740.09
2019-02-18T16:09:33.553Z,99736.02
2019-02-18T16:14:40.619Z,99735.94
2019-02-18T16:17:11.161Z,99729.90
2019-02-18T16:19:42.898Z,99735.30
2019-02-18T16:22:13.548Z,99741.33
2019-02-18T16:24:46.393Z,99739.17
2019-02-18T16:27:25.473Z,99734.41
2019-02-18T16:29:57.069Z,99735.73
2019-02-18T16:32:27.846Z,99737.36
2019-02-18T16:34:59.887Z,99732.03
2019-02-18T16:37:31.110Z,99740.02
2019-02-18T16:40:01.576Z,99742.12
2019-02-18T16:42:32.285Z,99735.34
2019-02-18T16:45:03.294Z,99734.69
2019-02-18T16:47:34.019Z,99742.13
2019-02-18T16:50:05.043Z,99741.77
2019-02-18T16:52:35.750Z,99748.11
2019-02-18T16:55:07.803Z,99743.76
2019-02-18T16:57:38.534Z,99739.82
2019-02-18T17:00:21.418Z,99747.00
2019-02-18T17:02:52.022Z,99744.91
2019-02-18T17:05:22.679Z,99742.52
2019-02-18T17:07:53.199Z,99744.59
2019-02-18T17:10:23.818Z,99739.70
2019-02-18T17:12:57.585Z,99737.70
2019-02-18T17:15:34.103Z,99733.15
2019-02-18T17:18:04.884Z,99728.94
2019-02-18T17:20:35.419Z,99728.92
2019-02-18T17:23:07.193Z,99727.78
2019-02-18T17:25:37.931Z,99722.50
2019-02-18T17:28:08.577Z,99726.27
2019-02-18T17:30:39.848Z,99721.38
2019-02-18T17:33:15.339Z,99719.76
2019-02-18T17:35:51.924Z,99720.04
2019-02-18T17:38:24.727Z,99722.23
2019-02-18T17:40:56.715Z,99718.98
2019-02-18T17:43:28.386Z,99724.84
2019-02-18T17:46:06.204Z,99719.28
2019-02-18T17:48:40.057Z,99719.48
2019-02-18T17:51:11.036Z,99714.13
2019-02-18T17:53:43.150Z,99714.83
2019-02-18T17:56:14.899Z,99709.53
2019-02-18T17:58:46.217Z,99707.86
2019-02-18T18:01:19.496Z,99707.75
2019-02-18T18:03:50.190Z,99701.10
2019-02-18T18:06:21.081Z,99698.19
2019-02-18T18:08:52.860Z,99694.50
2019-02-18T18:11:27.505Z,99690.81
2019-02-18T18:14:02.525Z,99690.14
2019-02-18T18:16:35.362Z,99684.24
2019-02-18T18:19:09.339Z,99683.30
2019-02-18T18:21:38.395Z,99683.30
2019-02-18T18:24:09.089Z,99677.12
2019-02-18T18:26:39.700Z,99674.53
2019-02-18T18:29:14.648Z,99677.77
2019-02-18T18:31:46.305Z,99677.29
2019-02-18T18:34:17.553Z,99671.14
2019-02-18T18:36:57.403Z,99669.29
2019-02-18T18:39:27.954Z,99672.77
2019-02-18T18:41:59.467Z,99661.83
2019-02-18T18:44:33.216Z,99661.21
2019-02-18T18:47:05.439Z,99661.83
2019-02-18T18:49:39.605Z,99663.30
2019-02-18T18:52:12.019Z,99663.59
2019-02-18T18:54:48.360Z,99658.61
2019-02-18T18:57:20.115Z,99654.05
2019-02-18T18:59:53.946Z,99659.41
2019-02-18T19:02:25.400Z,99656.98
2019-02-18T19:04:58.261Z,99661.23
2019-02-18T19:07:28.933Z,99657.78
2019-02-18T19:10:03.802Z,99657.60
2019-02-18T19:12:34.659Z,99655.34
2019-02-18T19:15:06.928Z,99657.48
2019-02-18T19:17:38.725Z,99650.23
2019-02-18T19:20:14.013Z,99651.31
2019-02-18T19:22:50.307Z,99647.94
2019-02-18T19:25:21.507Z,99654.62
2019-02-18T19:27:52.225Z,99651.14
2019-02-18T19:30:26.229Z,99650.03
2019-02-18T19:32:56.790Z,99651.14
2019-02-18T19:35:28.505Z,99643.63
2019-02-18T19:38:01.442Z,99644.95
2019-02-18T19:40:32.908Z,99649.41
2019-02-18T19:43:12.123Z,99650.70
2019-02-18T19:45:52.132Z,99645.82
2019-02-18T19:48:26.371Z,99646.90
2019-02-18T19:50:59.233Z,99645.05
2019-02-18T19:53:31.139Z,99647.72
2019-02-18T19:56:11.729Z,99644.25
2019-02-18T19:58:43.933Z,99640.34
2019-02-18T20:01:27.089Z,99636.70
2019-02-18T20:04:08.501Z,99632.10
2019-02-18T20:06:42.755Z,99636.05
2019-02-18T20:09:16.475Z,99638.16
2019-02-18T20:11:51.301Z,99636.81
2019-02-18T20:14:30.110Z,99639.83
2019-02-18T20:17:04.915Z,99633.28
2019-02-18T20:19:45.744Z,99636.98
2019-02-18T20:22:24.638Z,99632.58
2019-02-18T20:24:56.389Z,99625.63
2019-02-18T20:27:33.809Z,99631.75
2019-02-18T20:30:13.250Z,99627.95
2019-02-18T20:32:49.218Z,99624.69
2019-02-18T20:35:24.413Z,99627.63
2019-02-18T20:37:57.180Z,99622.53
2019-02-18T20:40:28.088Z,99624.34
2019-02-18T20:43:00.703Z,99616.90
2019-02-18T20:45:35.786Z,99616.80
2019-02-18T20:48:11.134Z,99613.41
2019-02-18T20:50:43.553Z,99613.41
2019-02-18T20:56:09.614Z,99604.24
2019-02-18T20:58:40.595Z,99610.76
2019-02-18T21:01:12.404Z,99604.16
2019-02-18T21:03:46.485Z,99607.86
2019-02-18T21:06:17.523Z,99604.84
2019-02-18T21:08:50.909Z,99600.79
2019-02-18T21:11:24.943Z,99598.75
2019-02-18T21:13:59.889Z,99600.06
2019-02-18T21:16:30.529Z,99593.88
2019-02-18T21:19:02.062Z,99589.85
2019-02-18T21:21:32.683Z,99590.31
2019-02-18T21:24:07.909Z,99583.95
2019-02-18T21:26:38.739Z,99586.55
2019-02-18T21:29:10.159Z,99584.04
2019-02-18T21:31:40.852Z,99587.92
2019-02-18T21:34:11.440Z,99589.72
2019-02-18T21:36:41.964Z,99589.48
2019-02-18T21:39:15.652Z,99586.67
2019-02-18T21:41:46.273Z,99590.55
2019-02-18T21:44:24.705Z,99586.72
2019-02-18T21:46:49.130Z,99580.06
2019-02-18T21:49:19.671Z,99579.27
2019-02-18T21:51:50.260Z,99583.41
2019-02-18T21:54:20.899Z,99588.31
2019-02-18T21:56:51.627Z,99580.27
2019-02-18T21:59:22.152Z,99582.20
2019-02-18T22:01:53.178Z,99587.36
2019-02-18T22:04:23.820Z,99587.84
2019-02-18T22:06:54.192Z,99594.39
2019-02-18T22:09:24.708Z,99593.22
2019-02-18T22:11:55.176Z,99596.05
2019-02-18T22:14:33.102Z,99595.94
2019-02-18T22:16:57.792Z,99592.48
2019-02-18T22:19:28.338Z,99594.56
2019-02-18T22:21:58.890Z,99589.70
2019-02-18T22:24:29.378Z,99588.92
2019-02-18T22:26:59.870Z,99587.52
2019-02-18T22:29:31.004Z,99585.82
2019-02-18T22:32:01.407Z,99585.45
2019-02-18T22:34:32.024Z,99588.02
2019-02-18T22:37:02.591Z,99581.23
2019-02-18T22:39:32.960Z,99583.79
2019-02-18T22:42:03.599Z,99580.98
2019-02-18T22:44:41.709Z,99583.41
2019-02-18T22:47:07.250Z,99574.45
2019-02-18T22:49:37.672Z,99573.03
2019-02-18T22:52:08.258Z,99576.57
2019-02-18T22:54:38.801Z,99574.16
2019-02-18T22:57:09.787Z,99570.70
2019-02-18T22:59:40.572Z,99571.98
2019-02-18T23:02:11.749Z,99565.85
2019-02-18T23:04:42.354Z,99566.61
2019-02-18T23:07:12.934Z,99576.59
2019-02-18T23:09:43.562Z,99568.30
2019-02-18T23:12:14.558Z,99558.68
2019-02-18T23:14:50.492Z,99557.65
2019-02-18T23:17:17.416Z,99561.87
2019-02-18T23:19:48.005Z,99554.18
2019-02-18T23:22:18.854Z,99553.19
2019-02-18T23:24:49.604Z,99551.00
2019-02-18T23:27:20.294Z,99554.31
2019-02-18T23:29:50.884Z,99560.58
2019-02-18T23:32:21.504Z,99552.77
2019-02-18T23:34:51.949Z,99555.58
2019-02-18T23:37:22.654Z,99556.86
2019-02-18T23:39:53.179Z,99556.20
2019-02-18T23:42:23.726Z,99555.33
2019-02-18T23:44:59.285Z,99552.03
2019-02-18T23:47:26.573Z,99551.77
2019-02-18T23:49:57.004Z,99550.98
2019-02-18T23:52:27.352Z,99550.47
2019-02-18T23:54:57.776Z,99546.50
2019-02-18T23:57:29.851Z,99548.03
